sensor_id;sensor_type;location;lat;lon;timestamp;P1;durP1;ratioP1;P2;durP2;ratioP2
35110;SDS011;21290;50.158;8.658;2023-06-24T00:02:22;9.27;;;6.53;;
35110;SDS011;21290;50.158;8.658;2023-06-24T00:04:50;9.80;;;6.20;;
35110;SDS011;21290;50.158;8.658;2023-06-24T00:07:18;8.07;;;6.82;;
35110;SDS011;21290;50.158;8.658;2023-06-24T00:09:48;8.82;;;6.80;;
35110;SDS011;21290;50.158;8.658;2023-06-24T00:12:15;7.28;;;6.32;;
35110;SDS011;21290;50.158;8.658;2023-06-24T00:14:48;7.78;;;6.20;;
35110;SDS011;21290;50.158;8.658;2023-06-24T00:17:16;10.60;;;6.38;;
35110;SDS011;21290;50.158;8.658;2023-06-24T00:19:43;6.95;;;6.25;;
35110;SDS011;21290;50.158;8.658;2023-06-24T00:22:12;9.65;;;5.95;;
35110;SDS011;21290;50.158;8.658;2023-06-24T00:24:41;6.88;;;6.15;;
35110;SDS011;21290;50.158;8.658;2023-06-24T00:27:09;7.80;;;6.30;;
35110;SDS011;21290;50.158;8.658;2023-06-24T00:29:36;7.53;;;6.20;;
35110;SDS011;21290;50.158;8.658;2023-06-24T00:32:03;9.48;;;6.60;;
35110;SDS011;21290;50.158;8.658;2023-06-24T00:34:30;10.25;;;6.55;;
35110;SDS011;21290;50.158;8.658;2023-06-24T00:36:56;9.27;;;6.38;;
35110;SDS011;21290;50.158;8.658;2023-06-24T00:39:23;8.32;;;6.10;;
35110;SDS011;21290;50.158;8.658;2023-06-24T00:41:50;9.00;;;6.88;;
35110;SDS011;21290;50.158;8.658;2023-06-24T00:44:16;8.73;;;6.07;;
35110;SDS011;21290;50.158;8.658;2023-06-24T00:46:43;7.80;;;6.50;;
35110;SDS011;21290;50.158;8.658;2023-06-24T00:49:10;9.45;;;6.18;;
35110;SDS011;21290;50.158;8.658;2023-06-24T00:51:40;7.38;;;6.40;;
35110;SDS011;21290;50.158;8.658;2023-06-24T00:54:13;9.85;;;6.78;;
35110;SDS011;21290;50.158;8.658;2023-06-24T00:56:40;9.18;;;6.25;;
35110;SDS011;21290;50.158;8.658;2023-06-24T00:59:08;8.48;;;6.57;;
35110;SDS011;21290;50.158;8.658;2023-06-24T01:01:38;10.85;;;7.18;;
35110;SDS011;21290;50.158;8.658;2023-06-24T01:04:06;9.40;;;6.55;;
35110;SDS011;21290;50.158;8.658;2023-06-24T01:06:34;9.82;;;7.20;;
35110;SDS011;21290;50.158;8.658;2023-06-24T01:09:02;10.02;;;6.97;;
35110;SDS011;21290;50.158;8.658;2023-06-24T01:11:29;9.50;;;7.18;;
35110;SDS011;21290;50.158;8.658;2023-06-24T01:13:57;9.05;;;6.43;;
35110;SDS011;21290;50.158;8.658;2023-06-24T01:16:43;11.07;;;7.18;;
35110;SDS011;21290;50.158;8.658;2023-06-24T01:22:06;9.63;;;7.00;;
35110;SDS011;21290;50.158;8.658;2023-06-24T01:27:52;8.85;;;7.05;;
35110;SDS011;21290;50.158;8.658;2023-06-24T01:30:47;9.50;;;6.95;;
35110;SDS011;21290;50.158;8.658;2023-06-24T01:33:22;8.48;;;7.00;;
35110;SDS011;21290;50.158;8.658;2023-06-24T01:35:53;11.93;;;7.57;;
35110;SDS011;21290;50.158;8.658;2023-06-24T01:38:31;11.98;;;7.22;;
35110;SDS011;21290;50.158;8.658;2023-06-24T01:41:05;7.95;;;6.90;;
35110;SDS011;21290;50.158;8.658;2023-06-24T01:43:33;9.55;;;7.18;;
35110;SDS011;21290;50.158;8.658;2023-06-24T01:46:01;10.15;;;7.72;;
35110;SDS011;21290;50.158;8.658;2023-06-24T01:48:32;10.40;;;7.35;;
35110;SDS011;21290;50.158;8.658;2023-06-24T01:51:09;7.78;;;6.93;;
35110;SDS011;21290;50.158;8.658;2023-06-24T01:53:38;9.02;;;6.93;;
35110;SDS011;21290;50.158;8.658;2023-06-24T01:56:10;9.00;;;7.78;;
35110;SDS011;21290;50.158;8.658;2023-06-24T01:58:39;8.82;;;7.40;;
35110;SDS011;21290;50.158;8.658;2023-06-24T02:01:08;14.95;;;7.53;;
35110;SDS011;21290;50.158;8.658;2023-06-24T02:03:36;8.20;;;6.80;;
35110;SDS011;21290;50.158;8.658;2023-06-24T02:06:04;7.97;;;6.57;;
35110;SDS011;21290;50.158;8.658;2023-06-24T02:08:33;9.90;;;7.13;;
35110;SDS011;21290;50.158;8.658;2023-06-24T02:11:01;12.43;;;7.40;;
35110;SDS011;21290;50.158;8.658;2023-06-24T02:13:30;12.77;;;7.30;;
35110;SDS011;21290;50.158;8.658;2023-06-24T02:16:01;9.18;;;7.05;;
35110;SDS011;21290;50.158;8.658;2023-06-24T02:18:32;10.73;;;7.03;;
35110;SDS011;21290;50.158;8.658;2023-06-24T02:21:01;10.32;;;7.95;;
35110;SDS011;21290;50.158;8.658;2023-06-24T02:23:29;8.90;;;8.00;;
35110;SDS011;21290;50.158;8.658;2023-06-24T02:25:57;8.75;;;7.60;;
35110;SDS011;21290;50.158;8.658;2023-06-24T02:28:24;10.13;;;7.75;;
35110;SDS011;21290;50.158;8.658;2023-06-24T02:30:51;9.52;;;7.78;;
35110;SDS011;21290;50.158;8.658;2023-06-24T02:33:18;11.15;;;8.13;;
35110;SDS011;21290;50.158;8.658;2023-06-24T02:35:45;11.38;;;7.68;;
35110;SDS011;21290;50.158;8.658;2023-06-24T02:38:12;10.40;;;8.00;;
35110;SDS011;21290;50.158;8.658;2023-06-24T02:40:39;10.23;;;8.20;;
35110;SDS011;21290;50.158;8.658;2023-06-24T02:43:08;9.30;;;8.30;;
35110;SDS011;21290;50.158;8.658;2023-06-24T02:45:35;10.32;;;8.00;;
35110;SDS011;21290;50.158;8.658;2023-06-24T02:48:02;9.48;;;8.48;;
35110;SDS011;21290;50.158;8.658;2023-06-24T02:50:30;12.20;;;7.97;;
35110;SDS011;21290;50.158;8.658;2023-06-24T02:52:58;10.60;;;8.38;;
35110;SDS011;21290;50.158;8.658;2023-06-24T02:55:25;11.73;;;8.02;;
35110;SDS011;21290;50.158;8.658;2023-06-24T02:57:53;9.40;;;8.40;;
35110;SDS011;21290;50.158;8.658;2023-06-24T03:00:22;10.05;;;8.52;;
35110;SDS011;21290;50.158;8.658;2023-06-24T03:02:49;9.98;;;7.90;;
35110;SDS011;21290;50.158;8.658;2023-06-24T03:05:16;9.75;;;8.70;;
35110;SDS011;21290;50.158;8.658;2023-06-24T03:07:44;9.63;;;8.40;;
35110;SDS011;21290;50.158;8.658;2023-06-24T03:10:12;9.75;;;8.73;;
35110;SDS011;21290;50.158;8.658;2023-06-24T03:12:40;14.32;;;8.73;;
35110;SDS011;21290;50.158;8.658;2023-06-24T03:15:07;10.70;;;8.48;;
35110;SDS011;21290;50.158;8.658;2023-06-24T03:17:36;15.43;;;9.33;;
35110;SDS011;21290;50.158;8.658;2023-06-24T03:20:03;10.10;;;8.73;;
35110;SDS011;21290;50.158;8.658;2023-06-24T03:22:31;11.05;;;8.85;;
35110;SDS011;21290;50.158;8.658;2023-06-24T03:24:57;12.48;;;9.75;;
35110;SDS011;21290;50.158;8.658;2023-06-24T03:27:25;10.07;;;8.70;;
35110;SDS011;21290;50.158;8.658;2023-06-24T03:29:51;12.70;;;9.07;;
35110;SDS011;21290;50.158;8.658;2023-06-24T03:32:18;10.68;;;8.75;;
35110;SDS011;21290;50.158;8.658;2023-06-24T03:34:44;14.20;;;9.02;;
35110;SDS011;21290;50.158;8.658;2023-06-24T03:37:11;9.20;;;8.15;;
35110;SDS011;21290;50.158;8.658;2023-06-24T03:39:38;10.73;;;8.60;;
35110;SDS011;21290;50.158;8.658;2023-06-24T03:42:05;9.75;;;8.60;;
35110;SDS011;21290;50.158;8.658;2023-06-24T03:44:31;10.18;;;9.07;;
35110;SDS011;21290;50.158;8.658;2023-06-24T03:46:58;10.75;;;9.02;;
35110;SDS011;21290;50.158;8.658;2023-06-24T03:49:24;9.52;;;8.23;;
35110;SDS011;21290;50.158;8.658;2023-06-24T03:51:51;11.80;;;8.63;;
35110;SDS011;21290;50.158;8.658;2023-06-24T03:54:18;12.75;;;8.55;;
35110;SDS011;21290;50.158;8.658;2023-06-24T03:56:44;9.57;;;8.48;;
35110;SDS011;21290;50.158;8.658;2023-06-24T03:59:11;12.48;;;8.80;;
35110;SDS011;21290;50.158;8.658;2023-06-24T04:01:38;9.15;;;7.95;;
35110;SDS011;21290;50.158;8.658;2023-06-24T04:04:05;10.48;;;9.38;;
35110;SDS011;21290;50.158;8.658;2023-06-24T04:06:32;9.77;;;8.20;;
35110;SDS011;21290;50.158;8.658;2023-06-24T04:08:59;11.38;;;8.68;;
35110;SDS011;21290;50.158;8.658;2023-06-24T04:11:25;12.85;;;8.90;;
35110;SDS011;21290;50.158;8.658;2023-06-24T04:13:52;11.40;;;8.05;;
35110;SDS011;21290;50.158;8.658;2023-06-24T04:16:18;11.10;;;8.68;;
35110;SDS011;21290;50.158;8.658;2023-06-24T04:18:45;12.85;;;8.88;;
35110;SDS011;21290;50.158;8.658;2023-06-24T04:21:12;11.35;;;8.98;;
35110;SDS011;21290;50.158;8.658;2023-06-24T04:23:40;10.98;;;8.00;;
35110;SDS011;21290;50.158;8.658;2023-06-24T04:26:07;10.52;;;8.52;;
35110;SDS011;21290;50.158;8.658;2023-06-24T04:28:33;9.15;;;8.23;;
35110;SDS011;21290;50.158;8.658;2023-06-24T04:31:00;12.82;;;8.80;;
35110;SDS011;21290;50.158;8.658;2023-06-24T04:33:27;10.13;;;8.45;;
35110;SDS011;21290;50.158;8.658;2023-06-24T04:35:54;10.68;;;8.60;;
35110;SDS011;21290;50.158;8.658;2023-06-24T04:38:23;9.43;;;7.78;;
35110;SDS011;21290;50.158;8.658;2023-06-24T04:40:49;9.70;;;7.95;;
35110;SDS011;21290;50.158;8.658;2023-06-24T04:43:16;11.38;;;7.97;;
35110;SDS011;21290;50.158;8.658;2023-06-24T04:45:43;11.02;;;7.75;;
35110;SDS011;21290;50.158;8.658;2023-06-24T04:48:09;9.50;;;8.30;;
35110;SDS011;21290;50.158;8.658;2023-06-24T04:50:36;11.75;;;8.00;;
35110;SDS011;21290;50.158;8.658;2023-06-24T04:53:03;13.25;;;8.20;;
35110;SDS011;21290;50.158;8.658;2023-06-24T04:55:29;9.60;;;8.07;;
35110;SDS011;21290;50.158;8.658;2023-06-24T04:57:56;10.02;;;7.82;;
35110;SDS011;21290;50.158;8.658;2023-06-24T05:00:23;9.27;;;7.32;;
35110;SDS011;21290;50.158;8.658;2023-06-24T05:02:50;10.48;;;7.18;;
35110;SDS011;21290;50.158;8.658;2023-06-24T05:05:18;8.98;;;7.78;;
35110;SDS011;21290;50.158;8.658;2023-06-24T05:07:46;9.95;;;7.35;;
35110;SDS011;21290;50.158;8.658;2023-06-24T05:10:13;8.57;;;7.53;;
35110;SDS011;21290;50.158;8.658;2023-06-24T05:12:40;8.30;;;6.90;;
35110;SDS011;21290;50.158;8.658;2023-06-24T05:15:07;8.73;;;7.35;;
35110;SDS011;21290;50.158;8.658;2023-06-24T05:17:34;9.80;;;7.10;;
35110;SDS011;21290;50.158;8.658;2023-06-24T05:20:01;8.05;;;6.70;;
35110;SDS011;21290;50.158;8.658;2023-06-24T05:22:29;8.60;;;6.80;;
35110;SDS011;21290;50.158;8.658;2023-06-24T05:24:55;9.45;;;6.97;;
35110;SDS011;21290;50.158;8.658;2023-06-24T05:27:22;9.65;;;6.72;;
35110;SDS011;21290;50.158;8.658;2023-06-24T05:29:49;11.75;;;6.78;;
35110;SDS011;21290;50.158;8.658;2023-06-24T05:32:15;9.00;;;6.72;;
35110;SDS011;21290;50.158;8.658;2023-06-24T05:34:43;8.70;;;6.47;;
35110;SDS011;21290;50.158;8.658;2023-06-24T05:37:10;9.82;;;6.55;;
35110;SDS011;21290;50.158;8.658;2023-06-24T05:39:36;8.70;;;6.57;;
35110;SDS011;21290;50.158;8.658;2023-06-24T05:42:03;8.32;;;6.22;;
35110;SDS011;21290;50.158;8.658;2023-06-24T05:44:30;10.45;;;6.75;;
35110;SDS011;21290;50.158;8.658;2023-06-24T05:46:57;14.75;;;7.90;;
35110;SDS011;21290;50.158;8.658;2023-06-24T05:49:24;9.18;;;6.38;;
35110;SDS011;21290;50.158;8.658;2023-06-24T05:51:50;10.45;;;7.15;;
35110;SDS011;21290;50.158;8.658;2023-06-24T05:54:17;7.15;;;6.40;;
35110;SDS011;21290;50.158;8.658;2023-06-24T05:56:44;6.93;;;5.97;;
35110;SDS011;21290;50.158;8.658;2023-06-24T05:59:10;9.68;;;6.45;;
35110;SDS011;21290;50.158;8.658;2023-06-24T06:01:37;10.10;;;6.65;;
35110;SDS011;21290;50.158;8.658;2023-06-24T06:04:04;11.82;;;6.10;;
35110;SDS011;21290;50.158;8.658;2023-06-24T06:06:30;9.70;;;6.45;;
35110;SDS011;21290;50.158;8.658;2023-06-24T06:08:59;7.80;;;6.90;;
35110;SDS011;21290;50.158;8.658;2023-06-24T06:11:26;9.32;;;6.85;;
35110;SDS011;21290;50.158;8.658;2023-06-24T06:13:53;7.28;;;5.97;;
35110;SDS011;21290;50.158;8.658;2023-06-24T06:16:19;9.80;;;6.63;;
35110;SDS011;21290;50.158;8.658;2023-06-24T06:18:46;9.30;;;6.50;;
35110;SDS011;21290;50.158;8.658;2023-06-24T06:21:13;7.90;;;6.30;;
35110;SDS011;21290;50.158;8.658;2023-06-24T06:23:39;12.93;;;6.00;;
35110;SDS011;21290;50.158;8.658;2023-06-24T06:26:06;8.30;;;6.13;;
35110;SDS011;21290;50.158;8.658;2023-06-24T06:28:32;7.80;;;5.88;;
35110;SDS011;21290;50.158;8.658;2023-06-24T06:30:59;6.70;;;6.00;;
35110;SDS011;21290;50.158;8.658;2023-06-24T06:33:26;8.27;;;6.20;;
35110;SDS011;21290;50.158;8.658;2023-06-24T06:35:52;6.55;;;5.80;;
35110;SDS011;21290;50.158;8.658;2023-06-24T06:38:19;9.35;;;7.03;;
35110;SDS011;21290;50.158;8.658;2023-06-24T06:40:46;9.35;;;6.95;;
35110;SDS011;21290;50.158;8.658;2023-06-24T06:43:12;10.25;;;6.45;;
35110;SDS011;21290;50.158;8.658;2023-06-24T06:45:39;7.20;;;6.40;;
35110;SDS011;21290;50.158;8.658;2023-06-24T06:48:06;12.30;;;6.00;;
35110;SDS011;21290;50.158;8.658;2023-06-24T06:50:34;11.18;;;6.20;;
35110;SDS011;21290;50.158;8.658;2023-06-24T06:53:01;7.50;;;6.15;;
35110;SDS011;21290;50.158;8.658;2023-06-24T06:55:27;7.68;;;5.88;;
35110;SDS011;21290;50.158;8.658;2023-06-24T06:57:54;7.95;;;6.30;;
35110;SDS011;21290;50.158;8.658;2023-06-24T07:00:21;12.88;;;5.65;;
35110;SDS011;21290;50.158;8.658;2023-06-24T07:02:48;6.57;;;5.85;;
35110;SDS011;21290;50.158;8.658;2023-06-24T07:05:15;6.57;;;5.80;;
35110;SDS011;21290;50.158;8.658;2023-06-24T07:07:43;6.82;;;5.90;;
35110;SDS011;21290;50.158;8.658;2023-06-24T07:10:11;9.32;;;6.65;;
35110;SDS011;21290;50.158;8.658;2023-06-24T07:12:39;7.32;;;5.63;;
35110;SDS011;21290;50.158;8.658;2023-06-24T07:15:06;8.05;;;5.72;;
35110;SDS011;21290;50.158;8.658;2023-06-24T07:17:36;6.35;;;4.55;;
35110;SDS011;21290;50.158;8.658;2023-06-24T07:20:03;6.22;;;5.47;;
35110;SDS011;21290;50.158;8.658;2023-06-24T07:22:30;6.82;;;5.55;;
35110;SDS011;21290;50.158;8.658;2023-06-24T07:24:57;6.97;;;5.40;;
35110;SDS011;21290;50.158;8.658;2023-06-24T07:27:23;7.85;;;5.80;;
35110;SDS011;21290;50.158;8.658;2023-06-24T07:29:51;6.63;;;5.15;;
35110;SDS011;21290;50.158;8.658;2023-06-24T07:32:18;7.13;;;4.80;;
35110;SDS011;21290;50.158;8.658;2023-06-24T07:34:44;7.60;;;4.97;;
35110;SDS011;21290;50.158;8.658;2023-06-24T07:37:11;14.30;;;5.18;;
35110;SDS011;21290;50.158;8.658;2023-06-24T07:39:48;5.22;;;4.35;;
35110;SDS011;21290;50.158;8.658;2023-06-24T07:42:15;5.75;;;4.07;;
35110;SDS011;21290;50.158;8.658;2023-06-24T07:44:46;7.65;;;4.47;;
35110;SDS011;21290;50.158;8.658;2023-06-24T07:47:13;5.07;;;4.57;;
35110;SDS011;21290;50.158;8.658;2023-06-24T07:49:40;6.05;;;4.03;;
35110;SDS011;21290;50.158;8.658;2023-06-24T07:52:06;6.40;;;3.97;;
35110;SDS011;21290;50.158;8.658;2023-06-24T07:54:34;8.85;;;4.45;;
35110;SDS011;21290;50.158;8.658;2023-06-24T07:57:01;6.10;;;3.92;;
35110;SDS011;21290;50.158;8.658;2023-06-24T07:59:28;8.00;;;4.45;;
35110;SDS011;21290;50.158;8.658;2023-06-24T08:01:54;6.00;;;3.97;;
35110;SDS011;21290;50.158;8.658;2023-06-24T08:04:21;5.72;;;4.38;;
35110;SDS011;21290;50.158;8.658;2023-06-24T08:06:48;6.55;;;4.97;;
35110;SDS011;21290;50.158;8.658;2023-06-24T08:09:15;11.20;;;4.57;;
35110;SDS011;21290;50.158;8.658;2023-06-24T08:11:43;11.80;;;5.70;;
35110;SDS011;21290;50.158;8.658;2023-06-24T08:14:09;6.43;;;4.70;;
35110;SDS011;21290;50.158;8.658;2023-06-24T08:16:37;5.93;;;4.43;;
35110;SDS011;21290;50.158;8.658;2023-06-24T08:19:04;6.70;;;4.53;;
35110;SDS011;21290;50.158;8.658;2023-06-24T08:21:30;5.05;;;4.30;;
35110;SDS011;21290;50.158;8.658;2023-06-24T08:23:57;8.38;;;3.92;;
35110;SDS011;21290;50.158;8.658;2023-06-24T08:26:23;4.47;;;3.75;;
35110;SDS011;21290;50.158;8.658;2023-06-24T08:28:50;8.50;;;3.90;;
35110;SDS011;21290;50.158;8.658;2023-06-24T08:31:17;4.43;;;3.97;;
35110;SDS011;21290;50.158;8.658;2023-06-24T08:34:02;6.05;;;3.90;;
35110;SDS011;21290;50.158;8.658;2023-06-24T08:36:52;4.80;;;3.58;;
35110;SDS011;21290;50.158;8.658;2023-06-24T08:39:19;4.93;;;3.75;;
35110;SDS011;21290;50.158;8.658;2023-06-24T08:41:45;4.30;;;3.75;;
35110;SDS011;21290;50.158;8.658;2023-06-24T08:44:12;4.95;;;3.85;;
35110;SDS011;21290;50.158;8.658;2023-06-24T08:46:39;8.98;;;4.22;;
35110;SDS011;21290;50.158;8.658;2023-06-24T08:49:12;8.48;;;5.22;;
35110;SDS011;21290;50.158;8.658;2023-06-24T08:51:58;12.10;;;4.40;;
35110;SDS011;21290;50.158;8.658;2023-06-24T08:54:26;5.80;;;3.60;;
35110;SDS011;21290;50.158;8.658;2023-06-24T08:56:52;6.30;;;3.53;;
35110;SDS011;21290;50.158;8.658;2023-06-24T08:59:19;7.72;;;3.90;;
35110;SDS011;21290;50.158;8.658;2023-06-24T09:01:47;9.10;;;4.00;;
35110;SDS011;21290;50.158;8.658;2023-06-24T09:04:14;7.33;;;3.87;;
35110;SDS011;21290;50.158;8.658;2023-06-24T09:06:40;10.38;;;3.58;;
35110;SDS011;21290;50.158;8.658;2023-06-24T09:09:19;7.57;;;4.13;;
35110;SDS011;21290;50.158;8.658;2023-06-24T09:11:57;7.13;;;3.42;;
35110;SDS011;21290;50.158;8.658;2023-06-24T09:14:25;6.82;;;3.55;;
35110;SDS011;21290;50.158;8.658;2023-06-24T09:16:58;7.82;;;4.07;;
35110;SDS011;21290;50.158;8.658;2023-06-24T09:19:30;6.30;;;3.90;;
35110;SDS011;21290;50.158;8.658;2023-06-24T09:22:02;6.40;;;3.97;;
35110;SDS011;21290;50.158;8.658;2023-06-24T09:24:30;9.00;;;4.35;;
35110;SDS011;21290;50.158;8.658;2023-06-24T09:26:57;6.20;;;4.20;;
35110;SDS011;21290;50.158;8.658;2023-06-24T09:29:28;4.07;;;3.35;;
35110;SDS011;21290;50.158;8.658;2023-06-24T09:31:58;6.60;;;3.53;;
35110;SDS011;21290;50.158;8.658;2023-06-24T09:34:27;8.93;;;3.60;;
35110;SDS011;21290;50.158;8.658;2023-06-24T09:36:55;4.68;;;3.38;;
35110;SDS011;21290;50.158;8.658;2023-06-24T09:39:23;4.00;;;2.97;;
35110;SDS011;21290;50.158;8.658;2023-06-24T09:41:57;5.28;;;3.13;;
35110;SDS011;21290;50.158;8.658;2023-06-24T09:44:26;4.88;;;3.20;;
35110;SDS011;21290;50.158;8.658;2023-06-24T09:46:53;4.45;;;3.17;;
35110;SDS011;21290;50.158;8.658;2023-06-24T09:49:22;4.18;;;3.03;;
35110;SDS011;21290;50.158;8.658;2023-06-24T09:51:49;4.93;;;3.50;;
35110;SDS011;21290;50.158;8.658;2023-06-24T09:54:20;4.72;;;3.05;;
35110;SDS011;21290;50.158;8.658;2023-06-24T09:56:48;6.17;;;2.80;;
35110;SDS011;21290;50.158;8.658;2023-06-24T09:59:17;3.78;;;2.90;;
35110;SDS011;21290;50.158;8.658;2023-06-24T10:01:52;3.13;;;2.78;;
35110;SDS011;21290;50.158;8.658;2023-06-24T10:04:20;2.88;;;2.50;;
35110;SDS011;21290;50.158;8.658;2023-06-24T10:06:50;9.80;;;3.25;;
35110;SDS011;21290;50.158;8.658;2023-06-24T10:09:17;3.03;;;2.65;;
35110;SDS011;21290;50.158;8.658;2023-06-24T10:11:45;5.50;;;2.65;;
35110;SDS011;21290;50.158;8.658;2023-06-24T10:16:41;2.58;;;2.35;;
35110;SDS011;21290;50.158;8.658;2023-06-24T10:21:45;5.22;;;2.97;;
35110;SDS011;21290;50.158;8.658;2023-06-24T10:24:30;3.17;;;2.80;;
35110;SDS011;21290;50.158;8.658;2023-06-24T10:27:01;4.95;;;2.80;;
35110;SDS011;21290;50.158;8.658;2023-06-24T10:32:08;3.65;;;2.85;;
35110;SDS011;21290;50.158;8.658;2023-06-24T10:37:22;7.82;;;2.60;;
35110;SDS011;21290;50.158;8.658;2023-06-24T10:39:57;3.47;;;2.50;;
35110;SDS011;21290;50.158;8.658;2023-06-24T10:42:31;4.82;;;2.80;;
35110;SDS011;21290;50.158;8.658;2023-06-24T10:50:08;3.75;;;2.92;;
35110;SDS011;21290;50.158;8.658;2023-06-24T10:52:41;6.22;;;2.80;;
35110;SDS011;21290;50.158;8.658;2023-06-24T10:55:15;3.05;;;2.45;;
35110;SDS011;21290;50.158;8.658;2023-06-24T10:57:44;9.05;;;3.10;;
35110;SDS011;21290;50.158;8.658;2023-06-24T11:00:11;3.67;;;2.80;;
35110;SDS011;21290;50.158;8.658;2023-06-24T11:02:39;3.90;;;2.55;;
35110;SDS011;21290;50.158;8.658;2023-06-24T11:05:06;3.92;;;3.30;;
35110;SDS011;21290;50.158;8.658;2023-06-24T11:07:39;2.80;;;2.50;;
35110;SDS011;21290;50.158;8.658;2023-06-24T11:10:07;4.15;;;2.85;;
35110;SDS011;21290;50.158;8.658;2023-06-24T11:12:39;4.63;;;3.13;;
35110;SDS011;21290;50.158;8.658;2023-06-24T11:15:07;3.28;;;2.63;;
35110;SDS011;21290;50.158;8.658;2023-06-24T11:17:36;4.28;;;2.80;;
35110;SDS011;21290;50.158;8.658;2023-06-24T11:20:21;4.03;;;2.78;;
35110;SDS011;21290;50.158;8.658;2023-06-24T11:22:48;2.97;;;2.10;;
35110;SDS011;21290;50.158;8.658;2023-06-24T11:25:19;2.67;;;2.47;;
35110;SDS011;21290;50.158;8.658;2023-06-24T11:27:49;3.75;;;2.30;;
35110;SDS011;21290;50.158;8.658;2023-06-24T11:30:18;2.75;;;2.25;;
35110;SDS011;21290;50.158;8.658;2023-06-24T11:32:44;2.63;;;2.40;;
35110;SDS011;21290;50.158;8.658;2023-06-24T11:35:12;2.60;;;2.30;;
35110;SDS011;21290;50.158;8.658;2023-06-24T11:37:42;2.13;;;1.85;;
35110;SDS011;21290;50.158;8.658;2023-06-24T11:40:10;3.05;;;2.13;;
35110;SDS011;21290;50.158;8.658;2023-06-24T11:45:11;3.58;;;2.22;;
35110;SDS011;21290;50.158;8.658;2023-06-24T11:47:41;2.95;;;2.40;;
35110;SDS011;21290;50.158;8.658;2023-06-24T11:50:08;6.17;;;2.90;;
35110;SDS011;21290;50.158;8.658;2023-06-24T11:52:38;3.42;;;2.28;;
35110;SDS011;21290;50.158;8.658;2023-06-24T11:55:16;5.28;;;2.58;;
35110;SDS011;21290;50.158;8.658;2023-06-24T11:57:50;3.95;;;2.50;;
35110;SDS011;21290;50.158;8.658;2023-06-24T12:00:25;3.78;;;2.55;;
35110;SDS011;21290;50.158;8.658;2023-06-24T12:03:00;6.68;;;2.80;;
35110;SDS011;21290;50.158;8.658;2023-06-24T12:05:29;5.78;;;2.80;;
35110;SDS011;21290;50.158;8.658;2023-06-24T12:07:58;3.90;;;3.08;;
35110;SDS011;21290;50.158;8.658;2023-06-24T12:10:30;4.10;;;3.10;;
35110;SDS011;21290;50.158;8.658;2023-06-24T12:13:02;3.40;;;3.10;;
35110;SDS011;21290;50.158;8.658;2023-06-24T12:15:31;7.30;;;3.20;;
35110;SDS011;21290;50.158;8.658;2023-06-24T12:17:58;4.45;;;3.03;;
35110;SDS011;21290;50.158;8.658;2023-06-24T12:20:26;9.53;;;4.20;;
35110;SDS011;21290;50.158;8.658;2023-06-24T12:22:57;7.68;;;3.60;;
35110;SDS011;21290;50.158;8.658;2023-06-24T12:25:24;5.28;;;3.40;;
35110;SDS011;21290;50.158;8.658;2023-06-24T12:27:51;5.00;;;3.08;;
35110;SDS011;21290;50.158;8.658;2023-06-24T12:30:17;3.72;;;3.30;;
35110;SDS011;21290;50.158;8.658;2023-06-24T12:32:44;3.53;;;3.22;;
35110;SDS011;21290;50.158;8.658;2023-06-24T12:35:11;5.00;;;3.13;;
35110;SDS011;21290;50.158;8.658;2023-06-24T12:37:38;6.93;;;3.50;;
35110;SDS011;21290;50.158;8.658;2023-06-24T12:40:05;4.88;;;3.60;;
35110;SDS011;21290;50.158;8.658;2023-06-24T12:42:32;5.30;;;3.80;;
35110;SDS011;21290;50.158;8.658;2023-06-24T12:44:59;5.53;;;3.80;;
35110;SDS011;21290;50.158;8.658;2023-06-24T12:47:27;6.03;;;3.75;;
35110;SDS011;21290;50.158;8.658;2023-06-24T12:49:54;8.25;;;3.78;;
35110;SDS011;21290;50.158;8.658;2023-06-24T12:52:21;4.97;;;4.47;;
35110;SDS011;21290;50.158;8.658;2023-06-24T12:54:48;7.38;;;4.40;;
35110;SDS011;21290;50.158;8.658;2023-06-24T12:57:15;4.50;;;3.75;;
35110;SDS011;21290;50.158;8.658;2023-06-24T12:59:42;8.35;;;3.90;;
35110;SDS011;21290;50.158;8.658;2023-06-24T13:02:08;5.20;;;3.80;;
35110;SDS011;21290;50.158;8.658;2023-06-24T13:04:35;5.07;;;3.45;;
35110;SDS011;21290;50.158;8.658;2023-06-24T13:07:02;5.95;;;3.80;;
35110;SDS011;21290;50.158;8.658;2023-06-24T13:09:29;4.28;;;3.42;;
35110;SDS011;21290;50.158;8.658;2023-06-24T13:11:56;7.18;;;3.83;;
35110;SDS011;21290;50.158;8.658;2023-06-24T13:14:22;4.78;;;3.50;;
35110;SDS011;21290;50.158;8.658;2023-06-24T13:19:18;5.38;;;3.30;;
35110;SDS011;21290;50.158;8.658;2023-06-24T13:21:45;6.45;;;4.97;;
35110;SDS011;21290;50.158;8.658;2023-06-24T13:24:11;6.53;;;5.38;;
35110;SDS011;21290;50.158;8.658;2023-06-24T13:26:38;5.05;;;4.25;;
35110;SDS011;21290;50.158;8.658;2023-06-24T13:29:05;6.22;;;3.75;;
35110;SDS011;21290;50.158;8.658;2023-06-24T13:31:33;6.50;;;3.50;;
35110;SDS011;21290;50.158;8.658;2023-06-24T13:34:00;5.85;;;3.60;;
35110;SDS011;21290;50.158;8.658;2023-06-24T13:36:28;4.85;;;3.67;;
35110;SDS011;21290;50.158;8.658;2023-06-24T13:39:08;3.40;;;3.10;;
35110;SDS011;21290;50.158;8.658;2023-06-24T13:41:37;6.20;;;3.50;;
35110;SDS011;21290;50.158;8.658;2023-06-24T13:44:04;5.80;;;3.80;;
35110;SDS011;21290;50.158;8.658;2023-06-24T13:46:31;4.00;;;3.55;;
35110;SDS011;21290;50.158;8.658;2023-06-24T13:48:59;7.45;;;3.60;;
35110;SDS011;21290;50.158;8.658;2023-06-24T13:51:30;4.07;;;3.70;;
35110;SDS011;21290;50.158;8.658;2023-06-24T13:53:57;4.32;;;3.65;;
35110;SDS011;21290;50.158;8.658;2023-06-24T13:56:24;5.13;;;4.18;;
35110;SDS011;21290;50.158;8.658;2023-06-24T13:58:52;3.88;;;3.45;;
35110;SDS011;21290;50.158;8.658;2023-06-24T14:01:19;4.55;;;3.95;;
35110;SDS011;21290;50.158;8.658;2023-06-24T14:03:46;7.25;;;4.28;;
35110;SDS011;21290;50.158;8.658;2023-06-24T14:06:14;4.20;;;3.80;;
35110;SDS011;21290;50.158;8.658;2023-06-24T14:08:42;5.28;;;3.85;;
35110;SDS011;21290;50.158;8.658;2023-06-24T14:11:09;5.13;;;3.95;;
35110;SDS011;21290;50.158;8.658;2023-06-24T14:13:36;4.60;;;3.78;;
35110;SDS011;21290;50.158;8.658;2023-06-24T14:16:03;5.55;;;3.88;;
35110;SDS011;21290;50.158;8.658;2023-06-24T14:18:31;4.40;;;3.70;;
35110;SDS011;21290;50.158;8.658;2023-06-24T14:20:59;6.72;;;3.90;;
35110;SDS011;21290;50.158;8.658;2023-06-24T14:23:27;6.63;;;3.80;;
35110;SDS011;21290;50.158;8.658;2023-06-24T14:25:54;9.85;;;7.35;;
35110;SDS011;21290;50.158;8.658;2023-06-24T14:28:21;7.68;;;4.97;;
35110;SDS011;21290;50.158;8.658;2023-06-24T14:30:48;4.85;;;4.38;;
35110;SDS011;21290;50.158;8.658;2023-06-24T14:33:15;6.18;;;4.18;;
35110;SDS011;21290;50.158;8.658;2023-06-24T14:35:42;4.63;;;3.70;;
35110;SDS011;21290;50.158;8.658;2023-06-24T14:38:09;3.83;;;3.25;;
35110;SDS011;21290;50.158;8.658;2023-06-24T14:40:36;4.70;;;3.78;;
35110;SDS011;21290;50.158;8.658;2023-06-24T14:43:03;10.40;;;4.15;;
35110;SDS011;21290;50.158;8.658;2023-06-24T14:45:29;3.88;;;3.40;;
35110;SDS011;21290;50.158;8.658;2023-06-24T14:47:56;6.18;;;3.80;;
35110;SDS011;21290;50.158;8.658;2023-06-24T14:50:23;3.67;;;3.25;;
35110;SDS011;21290;50.158;8.658;2023-06-24T14:52:50;5.13;;;3.55;;
35110;SDS011;21290;50.158;8.658;2023-06-24T14:55:17;6.85;;;3.47;;
35110;SDS011;21290;50.158;8.658;2023-06-24T14:57:43;5.90;;;3.78;;
35110;SDS011;21290;50.158;8.658;2023-06-24T15:00:10;6.10;;;3.67;;
35110;SDS011;21290;50.158;8.658;2023-06-24T15:02:37;4.70;;;3.50;;
35110;SDS011;21290;50.158;8.658;2023-06-24T15:05:04;5.72;;;3.90;;
35110;SDS011;21290;50.158;8.658;2023-06-24T15:07:31;4.72;;;4.05;;
35110;SDS011;21290;50.158;8.658;2023-06-24T15:09:58;7.30;;;4.13;;
35110;SDS011;21290;50.158;8.658;2023-06-24T15:12:24;5.68;;;4.15;;
35110;SDS011;21290;50.158;8.658;2023-06-24T15:14:51;10.35;;;3.90;;
35110;SDS011;21290;50.158;8.658;2023-06-24T15:17:18;4.70;;;3.85;;
35110;SDS011;21290;50.158;8.658;2023-06-24T15:19:44;6.38;;;3.92;;